Аэропорт: Чебоксары. Чебоксары

ICAO: UWKS

METAR:
2018/05/20 23:00
UWKS 202300Z 01003MPS 9999 BKN020CB 08/05 Q1022 R06/010060 NOSIG RMK QFE751
METAR:
2015/12/20 18:00
TAF UWKS 201632Z 2018/2103 27003MPS 2700 -SNRA BR OVC007 
      TEMPO 2018/2102 0500 FZDZ FZFG OVC002